^^
Grace C. Lehan Memorial Weather Station Historical Data
Daily Summary for June 1, 2022 Units:  Both    English   Metric
Daily Weekly Monthly Yearly
  High: Low: Average:
Temperature: 16.6 °F /  -8.6 °C 10.7 °F /  -11.8 °C 13.2 °F /  -10.4 °C
Dew Point: 8.9 °F /  -12.8 °C 6 °F /  -14.4 °C 7.3 °F /  -13.7 °C
Humidity: 82% 71% 77%
Wind Speed: 0mph /  0km/h - 0mph /  0km/h
Wind Gust: 1mph /  1.6km/h - -
Wind- -
Pressure: 30.56 in /  1034.8 hPa 30.47 in /  1031.7 hPa -
Precipitation: 0.00 in /  0 mm    
 
 
Tabular Data for June 1, 2022
Time Temperature Dew Point Pressure Wind Wind Speed Wind Gust Humidity Rainfall Rate (Hourly) solar
00:04 16.6 °F /  -8.6 °C 8.9 °F /  -12.8 °C 30.47in /  1031.7hPa Calm     71% 0.00in /  0mm 0 W/m2
00:09 16.6 °F /  -8.6 °C 8.8 °F /  -12.9 °C 30.47in /  1031.7hPa Calm     71% 0.00in /  0mm 0 W/m2
00:14 16.4 °F /  -8.7 °C 8.8 °F /  -12.9 °C 30.47in /  1031.7hPa Calm     71.6% 0.00in /  0mm 0 W/m2
00:19 16.3 °F /  -8.7 °C 8.8 °F /  -12.9 °C 30.48in /  1032.1hPa Calm     72% 0.00in /  0mm 0 W/m2
00:24 16.2 °F /  -8.8 °C 8.7 °F /  -12.9 °C 30.48in /  1032.1hPa Calm     72% 0.00in /  0mm 0 W/m2
00:29 16.1 °F /  -8.8 °C 8.7 °F /  -12.9 °C 30.48in /  1032.1hPa Calm     72% 0.00in /  0mm 0 W/m2
00:34 16 °F /  -8.9 °C 8.6 °F /  -13 °C 30.48in /  1032.1hPa Calm     72% 0.00in /  0mm 0 W/m2
00:39 15.9 °F /  -8.9 °C 8.5 °F /  -13.1 °C 30.48in /  1032.1hPa Calm     72% 0.00in /  0mm 0 W/m2
00:44 15.8 °F /  -9 °C 8.4 °F /  -13.1 °C 30.48in /  1032.1hPa Calm     72% 0.00in /  0mm 0 W/m2
00:49 15.8 °F /  -9 °C 8.4 °F /  -13.1 °C 30.48in /  1032.1hPa Calm     72% 0.00in /  0mm 0 W/m2
00:54 15.8 °F /  -9 °C 8.4 °F /  -13.1 °C 30.48in /  1032.1hPa Calm     72% 0.00in /  0mm 0 W/m2
00:59 15.8 °F /  -9 °C 8.4 °F /  -13.1 °C 30.48in /  1032.1hPa Calm     72% 0.00in /  0mm 0 W/m2
01:04 15.8 °F /  -9 °C 8.4 °F /  -13.1 °C 30.48in /  1032.1hPa Calm     72% 0.00in /  0mm 0 W/m2
01:09 15.8 °F /  -9 °C 8.4 °F /  -13.1 °C 30.48in /  1032.1hPa Calm     72% 0.00in /  0mm 0 W/m2
01:14 15.8 °F /  -9 °C 8.4 °F /  -13.1 °C 30.48in /  1032.1hPa Calm     72% 0.00in /  0mm 0 W/m2
01:19 15.7 °F /  -9.1 °C 8.2 °F /  -13.2 °C 30.48in /  1032.1hPa Calm     71.7% 0.00in /  0mm 0 W/m2
01:24 15.5 °F /  -9.2 °C 7.9 °F /  -13.4 °C 30.49in /  1032.4hPa Calm     71.3% 0.00in /  0mm 0 W/m2
01:29 15.4 °F /  -9.2 °C 8 °F /  -13.3 °C 30.48in /  1032.1hPa Calm     72% 0.00in /  0mm 0 W/m2
01:34 15.3 °F /  -9.3 °C 7.9 °F /  -13.4 °C 30.48in /  1032.1hPa Calm     72% 0.00in /  0mm 0 W/m2
01:39 15.2 °F /  -9.3 °C 7.8 °F /  -13.4 °C 30.48in /  1032.1hPa Calm     72% 0.00in /  0mm 0 W/m2
01:44 15 °F /  -9.4 °C 7.7 °F /  -13.5 °C 30.48in /  1032.1hPa Calm     72.2% 0.00in /  0mm 0 W/m2
01:49 14.8 °F /  -9.6 °C 7.8 °F /  -13.4 °C 30.49in /  1032.4hPa Calm     73% 0.00in /  0mm 0 W/m2
01:54 14.7 °F /  -9.6 °C 7.6 °F /  -13.6 °C 30.49in /  1032.4hPa Calm     73% 0.00in /  0mm 0 W/m2
01:59 14.6 °F /  -9.7 °C 7.7 °F /  -13.5 °C 30.50in /  1032.7hPa Calm     73.7% 0.00in /  0mm 0 W/m2
02:04 14.5 °F /  -9.7 °C 7.7 °F /  -13.5 °C 30.50in /  1032.7hPa Calm     74% 0.00in /  0mm 0 W/m2
02:09 14.3 °F /  -9.8 °C 7.7 °F /  -13.5 °C 30.50in /  1032.7hPa Calm     74.5% 0.00in /  0mm 0 W/m2
02:14 14.2 °F /  -9.9 °C 7.8 °F /  -13.4 °C 30.50in /  1032.7hPa Calm     75% 0.00in /  0mm 0 W/m2
02:19 14 °F /  -10 °C 7.6 °F /  -13.6 °C 30.50in /  1032.7hPa Calm     75% 0.00in /  0mm 0 W/m2
02:24 13.9 °F /  -10.1 °C 7.5 °F /  -13.6 °C 30.50in /  1032.7hPa Calm     75% 0.00in /  0mm 0 W/m2
02:29 13.7 °F /  -10.2 °C 7.5 °F /  -13.6 °C 30.50in /  1032.7hPa Calm     75.8% 0.00in /  0mm 0 W/m2
02:34 13.6 °F /  -10.2 °C 7.5 °F /  -13.6 °C 30.50in /  1032.7hPa Calm     76% 0.00in /  0mm 0 W/m2
02:39 13.5 °F /  -10.3 °C 7.4 °F /  -13.7 °C 30.50in /  1032.7hPa Calm     76% 0.00in /  0mm 0 W/m2
02:44 13.5 °F /  -10.3 °C 7.3 °F /  -13.7 °C 30.50in /  1032.7hPa Calm     76% 0.00in /  0mm 0 W/m2
02:49 13.4 °F /  -10.3 °C 7.3 °F /  -13.7 °C 30.50in /  1032.7hPa Calm     76% 0.00in /  0mm 0 W/m2
02:54 13.3 °F /  -10.4 °C 7.3 °F /  -13.7 °C 30.50in /  1032.7hPa Calm   1mph /  1.6km/h 76.3% 0.00in /  0mm 0 W/m2
02:59 13.3 °F /  -10.4 °C 7.5 °F /  -13.6 °C 30.50in /  1032.7hPa Calm   1mph /  1.6km/h 77% 0.00in /  0mm 0 W/m2
03:04 13.3 °F /  -10.4 °C 7.4 °F /  -13.7 °C 30.51in /  1033.1hPa Calm   1mph /  1.6km/h 77% 0.00in /  0mm 0 W/m2
03:09 13.2 °F /  -10.4 °C 7.4 °F /  -13.7 °C 30.51in /  1033.1hPa Calm     77% 0.00in /  0mm 0 W/m2
03:14 13.2 °F /  -10.4 °C 7.4 °F /  -13.7 °C 30.51in /  1033.1hPa Calm     77% 0.00in /  0mm 0 W/m2
03:19 13.2 °F /  -10.4 °C 7.3 °F /  -13.7 °C 30.51in /  1033.1hPa Calm     77% 0.00in /  0mm 0 W/m2
03:24 13.1 °F /  -10.5 °C 7.3 °F /  -13.7 °C 30.51in /  1033.1hPa Calm     77% 0.00in /  0mm 0 W/m2
03:29 13 °F /  -10.6 °C 7.2 °F /  -13.8 °C 30.51in /  1033.1hPa Calm     77% 0.00in /  0mm 0 W/m2
03:34 12.9 °F /  -10.6 °C 7.1 °F /  -13.8 °C 30.51in /  1033.1hPa Calm     77% 0.00in /  0mm 0 W/m2
03:39 12.8 °F /  -10.7 °C 7.1 °F /  -13.8 °C 30.51in /  1033.1hPa Calm     77.4% 0.00in /  0mm 0 W/m2
03:44 12.7 °F /  -10.7 °C 7.2 °F /  -13.8 °C 30.51in /  1033.1hPa Calm     78% 0.00in /  0mm 0 W/m2
03:49 12.7 °F /  -10.7 °C 7.2 °F /  -13.8 °C 30.51in /  1033.1hPa Calm     78% 0.00in /  0mm 0 W/m2
03:54 12.8 °F /  -10.7 °C 7.3 °F /  -13.7 °C 30.51in /  1033.1hPa Calm     78.2% 0.00in /  0mm 0 W/m2
03:59 12.8 °F /  -10.7 °C 7.5 °F /  -13.6 °C 30.51in /  1033.1hPa Calm     79% 0.00in /  0mm 0 W/m2
04:00 12.8 °F /  -10.7 °C 7.5 °F /  -13.6 °C 30.51in /  1033.1hPa Calm     79% 0.00in /  0mm 0 W/m2
04:09 12.7 °F /  -10.7 °C 7.3 °F /  -13.7 °C 30.51in /  1033.1hPa Calm     78.6% 0.00in /  0mm 0 W/m2
04:14 12.7 °F /  -10.7 °C 7.3 °F /  -13.7 °C 30.51in /  1033.1hPa Calm     78.6% 0.00in /  0mm 0 W/m2
04:19 12.8 °F /  -10.7 °C 7.5 °F /  -13.6 °C 30.52in /  1033.4hPa Calm     79% 0.00in /  0mm 0 W/m2
04:24 12.7 °F /  -10.7 °C 7.4 °F /  -13.7 °C 30.52in /  1033.4hPa Calm     78.8% 0.00in /  0mm 0 W/m2
04:29 12.5 °F /  -10.8 °C 7 °F /  -13.9 °C 30.52in /  1033.4hPa Calm     78% 0.00in /  0mm 0 W/m2
04:34 12.3 °F /  -10.9 °C 6.8 °F /  -14 °C 30.52in /  1033.4hPa Calm     78.2% 0.00in /  0mm 0 W/m2
04:39 12.2 °F /  -11 °C 6.9 °F /  -13.9 °C 30.52in /  1033.4hPa Calm     79% 0.00in /  0mm 0 W/m2
04:44 12 °F /  -11.1 °C 6.7 °F /  -14.1 °C 30.53in /  1033.7hPa Calm     79% 0.00in /  0mm 0 W/m2
04:49 11.8 °F /  -11.2 °C 6.6 °F /  -14.1 °C 30.53in /  1033.7hPa Calm     79% 0.00in /  0mm 0 W/m2
04:54 11.7 °F /  -11.3 °C 6.4 °F /  -14.2 °C 30.53in /  1033.7hPa Calm     79% 0.00in /  0mm 0 W/m2
04:59 11.5 °F /  -11.4 °C 6.3 °F /  -14.3 °C 30.53in /  1033.7hPa Calm     79% 0.00in /  0mm 0 W/m2
05:04 11.4 °F /  -11.4 °C 6.2 °F /  -14.3 °C 30.53in /  1033.7hPa Calm     79.2% 0.00in /  0mm 0 W/m2
05:09 11.3 °F /  -11.5 °C 6.4 °F /  -14.2 °C 30.54in /  1034.1hPa Calm     80% 0.00in /  0mm 0 W/m2
05:14 11.3 °F /  -11.5 °C 6.3 °F /  -14.3 °C 30.54in /  1034.1hPa Calm     80% 0.00in /  0mm 0 W/m2
05:19 11.2 °F /  -11.6 °C 6.3 °F /  -14.3 °C 30.54in /  1034.1hPa Calm     80% 0.00in /  0mm 0 W/m2
05:24 11.2 °F /  -11.6 °C 6.2 °F /  -14.3 °C 30.53in /  1033.7hPa Calm     80% 0.00in /  0mm 0 W/m2
05:29 11 °F /  -11.7 °C 6.1 °F /  -14.4 °C 30.54in /  1034.1hPa Calm     80% 0.00in /  0mm 0 W/m2
05:34 10.9 °F /  -11.7 °C 6 °F /  -14.4 °C 30.54in /  1034.1hPa Calm     80% 0.00in /  0mm 0 W/m2
05:39 10.9 °F /  -11.7 °C 6.1 °F /  -14.4 °C 30.54in /  1034.1hPa Calm     80.5% 0.00in /  0mm 0 W/m2
05:44 10.9 °F /  -11.7 °C 6.2 °F /  -14.3 °C 30.54in /  1034.1hPa Calm     81% 0.00in /  0mm 0 W/m2
05:49 11 °F /  -11.7 °C 6.3 °F /  -14.3 °C 30.54in /  1034.1hPa Calm     81% 0.00in /  0mm 0 W/m2
05:54 11 °F /  -11.7 °C 6.3 °F /  -14.3 °C 30.54in /  1034.1hPa Calm     81% 0.00in /  0mm 0 W/m2
05:59 11 °F /  -11.7 °C 6.3 °F /  -14.3 °C 30.55in /  1034.4hPa Calm     81% 0.00in /  0mm 0 W/m2
06:04 11 °F /  -11.7 °C 6.4 °F /  -14.2 °C 30.55in /  1034.4hPa Calm     81% 0.00in /  0mm 0 W/m2
06:09 11.2 °F /  -11.6 °C 6.7 °F /  -14.1 °C 30.54in /  1034.1hPa Calm     81.9% 0.00in /  0mm 0 W/m2
06:14 11.3 °F /  -11.5 °C 6.7 °F /  -14.1 °C 30.55in /  1034.4hPa Calm     81.4% 0.00in /  0mm 0 W/m2
06:19 11.3 °F /  -11.5 °C 6.7 °F /  -14.1 °C 30.54in /  1034.1hPa Calm     81.1% 0.00in /  0mm 0 W/m2
06:24 11.3 °F /  -11.5 °C 6.8 °F /  -14 °C 30.55in /  1034.4hPa Calm     81.5% 0.00in /  0mm 0 W/m2
06:29 11.3 °F /  -11.5 °C 6.6 °F /  -14.1 °C 30.55in /  1034.4hPa Calm     81% 0.00in /  0mm 0 W/m2
06:34 11.2 °F /  -11.6 °C 6.5 °F /  -14.2 °C 30.55in /  1034.4hPa Calm     81% 0.00in /  0mm 0 W/m2
06:39 11.2 °F /  -11.6 °C 6.5 °F /  -14.2 °C 30.55in /  1034.4hPa Calm     81% 0.00in /  0mm 0 W/m2
06:44 11.2 °F /  -11.6 °C 6.5 °F /  -14.2 °C 30.55in /  1034.4hPa Calm     81% 0.00in /  0mm 0 W/m2
06:49 11 °F /  -11.7 °C 6.3 °F /  -14.3 °C 30.55in /  1034.4hPa Calm     81% 0.00in /  0mm 0 W/m2
06:54 10.8 °F /  -11.8 °C 6.2 °F /  -14.3 °C 30.56in /  1034.8hPa Calm     81% 0.00in /  0mm 0 W/m2
06:59 10.7 °F /  -11.8 °C 6.1 °F /  -14.4 °C 30.56in /  1034.8hPa Calm     81% 0.00in /  0mm 0 W/m2
07:04 10.7 °F /  -11.8 °C 6.2 °F /  -14.3 °C 30.56in /  1034.8hPa Calm     81.6% 0.00in /  0mm 5 W/m2
07:08 10.7 °F /  -11.8 °C 6.3 °F /  -14.3 °C 30.56in /  1034.8hPa Calm     82% 0.00in /  0mm 7 W/m2
Hartford County Weather
Compliments of Weather Underground - 4 mb